sensor_id;sensor_type;location;lat;lon;timestamp;P1;durP1;ratioP1;P2;durP2;ratioP2
70320;SDS011;61127;55.826;37.046;2022-12-07T00:01:39;5.28;;;1.52;;
70320;SDS011;61127;55.826;37.046;2022-12-07T00:04:05;3.70;;;1.20;;
70320;SDS011;61127;55.826;37.046;2022-12-07T00:06:32;2.13;;;1.02;;
70320;SDS011;61127;55.826;37.046;2022-12-07T00:08:57;4.47;;;1.40;;
70320;SDS011;61127;55.826;37.046;2022-12-07T00:11:26;3.70;;;1.40;;
70320;SDS011;61127;55.826;37.046;2022-12-07T00:13:53;4.72;;;1.23;;
70320;SDS011;61127;55.826;37.046;2022-12-07T00:16:19;6.75;;;1.50;;
70320;SDS011;61127;55.826;37.046;2022-12-07T00:18:45;6.25;;;1.23;;
70320;SDS011;61127;55.826;37.046;2022-12-07T00:21:12;4.10;;;1.30;;
70320;SDS011;61127;55.826;37.046;2022-12-07T00:23:38;8.93;;;1.50;;
70320;SDS011;61127;55.826;37.046;2022-12-07T00:26:08;5.32;;;1.30;;
70320;SDS011;61127;55.826;37.046;2022-12-07T00:28:34;5.22;;;1.40;;
70320;SDS011;61127;55.826;37.046;2022-12-07T00:31:02;3.73;;;1.40;;
70320;SDS011;61127;55.826;37.046;2022-12-07T00:33:28;5.05;;;2.03;;
70320;SDS011;61127;55.826;37.046;2022-12-07T00:35:57;3.80;;;1.48;;
70320;SDS011;61127;55.826;37.046;2022-12-07T00:38:23;4.40;;;1.83;;
70320;SDS011;61127;55.826;37.046;2022-12-07T00:43:25;4.40;;;1.70;;
70320;SDS011;61127;55.826;37.046;2022-12-07T00:45:51;4.57;;;1.25;;
70320;SDS011;61127;55.826;37.046;2022-12-07T00:48:16;4.60;;;1.60;;
70320;SDS011;61127;55.826;37.046;2022-12-07T00:50:42;7.90;;;1.88;;
70320;SDS011;61127;55.826;37.046;2022-12-07T00:53:08;2.95;;;1.17;;
70320;SDS011;61127;55.826;37.046;2022-12-07T00:55:34;3.90;;;1.40;;
70320;SDS011;61127;55.826;37.046;2022-12-07T00:57:59;4.38;;;1.52;;
70320;SDS011;61127;55.826;37.046;2022-12-07T01:00:26;3.63;;;1.75;;
70320;SDS011;61127;55.826;37.046;2022-12-07T01:02:52;5.90;;;1.50;;
70320;SDS011;61127;55.826;37.046;2022-12-07T01:05:17;5.32;;;1.50;;
70320;SDS011;61127;55.826;37.046;2022-12-07T01:07:43;4.23;;;1.50;;
70320;SDS011;61127;55.826;37.046;2022-12-07T01:10:09;5.10;;;1.75;;
70320;SDS011;61127;55.826;37.046;2022-12-07T01:12:35;6.47;;;1.77;;
70320;SDS011;61127;55.826;37.046;2022-12-07T01:15:00;3.47;;;1.45;;
70320;SDS011;61127;55.826;37.046;2022-12-07T01:17:26;4.77;;;1.70;;
70320;SDS011;61127;55.826;37.046;2022-12-07T01:19:51;6.23;;;1.83;;
70320;SDS011;61127;55.826;37.046;2022-12-07T01:22:18;3.40;;;1.30;;
70320;SDS011;61127;55.826;37.046;2022-12-07T01:24:43;5.35;;;1.58;;
70320;SDS011;61127;55.826;37.046;2022-12-07T01:27:09;3.27;;;1.20;;
70320;SDS011;61127;55.826;37.046;2022-12-07T01:29:35;5.00;;;1.40;;
70320;SDS011;61127;55.826;37.046;2022-12-07T01:32:01;8.38;;;1.58;;
70320;SDS011;61127;55.826;37.046;2022-12-07T01:34:26;5.50;;;1.42;;
70320;SDS011;61127;55.826;37.046;2022-12-07T01:36:52;4.03;;;1.43;;
70320;SDS011;61127;55.826;37.046;2022-12-07T01:39:17;4.50;;;1.57;;
70320;SDS011;61127;55.826;37.046;2022-12-07T01:41:44;4.20;;;1.40;;
70320;SDS011;61127;55.826;37.046;2022-12-07T01:46:35;5.18;;;1.60;;
70320;SDS011;61127;55.826;37.046;2022-12-07T01:49:01;5.20;;;1.30;;
70320;SDS011;61127;55.826;37.046;2022-12-07T01:51:27;4.18;;;1.50;;
70320;SDS011;61127;55.826;37.046;2022-12-07T01:53:53;5.07;;;1.65;;
70320;SDS011;61127;55.826;37.046;2022-12-07T01:56:20;7.23;;;1.90;;
70320;SDS011;61127;55.826;37.046;2022-12-07T01:58:48;7.97;;;2.20;;
70320;SDS011;61127;55.826;37.046;2022-12-07T02:01:15;5.40;;;1.92;;
70320;SDS011;61127;55.826;37.046;2022-12-07T02:03:41;6.67;;;2.10;;
70320;SDS011;61127;55.826;37.046;2022-12-07T02:06:08;5.18;;;1.40;;
70320;SDS011;61127;55.826;37.046;2022-12-07T02:08:36;4.20;;;1.50;;
70320;SDS011;61127;55.826;37.046;2022-12-07T02:11:02;7.23;;;2.13;;
70320;SDS011;61127;55.826;37.046;2022-12-07T02:13:29;7.55;;;1.50;;
70320;SDS011;61127;55.826;37.046;2022-12-07T02:23:41;5.73;;;1.60;;
70320;SDS011;61127;55.826;37.046;2022-12-07T02:29:07;6.53;;;1.75;;
70320;SDS011;61127;55.826;37.046;2022-12-07T02:31:35;4.53;;;1.63;;
70320;SDS011;61127;55.826;37.046;2022-12-07T02:34:12;5.20;;;2.00;;
70320;SDS011;61127;55.826;37.046;2022-12-07T02:36:42;5.73;;;2.20;;
70320;SDS011;61127;55.826;37.046;2022-12-07T02:39:20;5.93;;;1.73;;
70320;SDS011;61127;55.826;37.046;2022-12-07T02:41:51;4.50;;;1.83;;
70320;SDS011;61127;55.826;37.046;2022-12-07T02:44:18;4.22;;;1.50;;
70320;SDS011;61127;55.826;37.046;2022-12-07T02:46:50;4.75;;;1.70;;
70320;SDS011;61127;55.826;37.046;2022-12-07T02:49:17;3.23;;;1.60;;
70320;SDS011;61127;55.826;37.046;2022-12-07T02:51:45;6.70;;;2.17;;
70320;SDS011;61127;55.826;37.046;2022-12-07T02:54:12;5.28;;;2.00;;
70320;SDS011;61127;55.826;37.046;2022-12-07T03:01:55;4.77;;;2.03;;
70320;SDS011;61127;55.826;37.046;2022-12-07T03:06:58;9.00;;;2.35;;
70320;SDS011;61127;55.826;37.046;2022-12-07T03:09:32;5.05;;;2.15;;
70320;SDS011;61127;55.826;37.046;2022-12-07T03:12:07;5.53;;;2.00;;
70320;SDS011;61127;55.826;37.046;2022-12-07T03:14:35;6.47;;;1.90;;
70320;SDS011;61127;55.826;37.046;2022-12-07T03:17:14;5.43;;;2.03;;
70320;SDS011;61127;55.826;37.046;2022-12-07T03:19:41;5.22;;;1.90;;
70320;SDS011;61127;55.826;37.046;2022-12-07T03:22:11;8.10;;;2.00;;
70320;SDS011;61127;55.826;37.046;2022-12-07T03:27:07;5.23;;;1.70;;
70320;SDS011;61127;55.826;37.046;2022-12-07T03:29:36;7.78;;;2.20;;
70320;SDS011;61127;55.826;37.046;2022-12-07T03:32:04;7.63;;;2.03;;
70320;SDS011;61127;55.826;37.046;2022-12-07T03:34:39;7.57;;;2.47;;
70320;SDS011;61127;55.826;37.046;2022-12-07T03:37:21;7.65;;;2.53;;
70320;SDS011;61127;55.826;37.046;2022-12-07T03:39:52;7.30;;;2.30;;
70320;SDS011;61127;55.826;37.046;2022-12-07T03:42:20;5.70;;;2.03;;
70320;SDS011;61127;55.826;37.046;2022-12-07T03:44:45;7.38;;;2.00;;
70320;SDS011;61127;55.826;37.046;2022-12-07T03:47:13;8.35;;;2.28;;
70320;SDS011;61127;55.826;37.046;2022-12-07T03:49:43;7.15;;;2.15;;
70320;SDS011;61127;55.826;37.046;2022-12-07T03:57:03;7.15;;;2.47;;
70320;SDS011;61127;55.826;37.046;2022-12-07T03:59:29;5.33;;;2.10;;
70320;SDS011;61127;55.826;37.046;2022-12-07T04:01:57;8.00;;;2.55;;
70320;SDS011;61127;55.826;37.046;2022-12-07T04:04:26;7.10;;;2.38;;
70320;SDS011;61127;55.826;37.046;2022-12-07T04:06:53;6.40;;;2.20;;
70320;SDS011;61127;55.826;37.046;2022-12-07T04:09:19;8.18;;;2.60;;
70320;SDS011;61127;55.826;37.046;2022-12-07T04:11:45;5.30;;;2.47;;
70320;SDS011;61127;55.826;37.046;2022-12-07T04:14:11;7.30;;;2.30;;
70320;SDS011;61127;55.826;37.046;2022-12-07T04:16:50;10.13;;;2.60;;
70320;SDS011;61127;55.826;37.046;2022-12-07T04:19:16;8.52;;;2.88;;
70320;SDS011;61127;55.826;37.046;2022-12-07T04:21:43;8.70;;;2.30;;
70320;SDS011;61127;55.826;37.046;2022-12-07T04:24:09;11.90;;;2.63;;
70320;SDS011;61127;55.826;37.046;2022-12-07T04:26:34;6.07;;;2.07;;
70320;SDS011;61127;55.826;37.046;2022-12-07T04:29:00;9.13;;;2.43;;
70320;SDS011;61127;55.826;37.046;2022-12-07T04:31:27;5.72;;;2.13;;
70320;SDS011;61127;55.826;37.046;2022-12-07T04:33:52;5.67;;;2.30;;
70320;SDS011;61127;55.826;37.046;2022-12-07T04:36:18;12.40;;;2.55;;
70320;SDS011;61127;55.826;37.046;2022-12-07T04:38:45;5.68;;;2.10;;
70320;SDS011;61127;55.826;37.046;2022-12-07T04:41:10;11.57;;;2.10;;
70320;SDS011;61127;55.826;37.046;2022-12-07T04:43:36;7.90;;;2.90;;
70320;SDS011;61127;55.826;37.046;2022-12-07T04:46:02;7.63;;;1.95;;
70320;SDS011;61127;55.826;37.046;2022-12-07T04:48:28;8.35;;;2.75;;
70320;SDS011;61127;55.826;37.046;2022-12-07T04:50:55;7.37;;;2.47;;
70320;SDS011;61127;55.826;37.046;2022-12-07T04:53:21;10.23;;;2.50;;
70320;SDS011;61127;55.826;37.046;2022-12-07T04:55:47;12.52;;;2.42;;
70320;SDS011;61127;55.826;37.046;2022-12-07T04:58:13;13.82;;;3.00;;
70320;SDS011;61127;55.826;37.046;2022-12-07T05:00:39;6.25;;;2.63;;
70320;SDS011;61127;55.826;37.046;2022-12-07T05:03:04;7.27;;;2.47;;
70320;SDS011;61127;55.826;37.046;2022-12-07T05:05:30;6.65;;;2.35;;
70320;SDS011;61127;55.826;37.046;2022-12-07T05:07:56;7.23;;;2.83;;
70320;SDS011;61127;55.826;37.046;2022-12-07T05:10:21;14.55;;;3.05;;
70320;SDS011;61127;55.826;37.046;2022-12-07T05:12:47;8.93;;;2.95;;
70320;SDS011;61127;55.826;37.046;2022-12-07T05:15:13;5.97;;;2.57;;
70320;SDS011;61127;55.826;37.046;2022-12-07T05:17:39;13.40;;;3.10;;
70320;SDS011;61127;55.826;37.046;2022-12-07T05:20:05;7.40;;;2.40;;
70320;SDS011;61127;55.826;37.046;2022-12-07T05:22:31;10.30;;;2.65;;
70320;SDS011;61127;55.826;37.046;2022-12-07T05:24:57;9.65;;;2.97;;
70320;SDS011;61127;55.826;37.046;2022-12-07T05:27:22;5.93;;;2.60;;
70320;SDS011;61127;55.826;37.046;2022-12-07T05:29:49;6.50;;;2.17;;
70320;SDS011;61127;55.826;37.046;2022-12-07T05:32:15;7.63;;;1.95;;
70320;SDS011;61127;55.826;37.046;2022-12-07T05:34:40;6.70;;;2.47;;
70320;SDS011;61127;55.826;37.046;2022-12-07T05:37:06;7.50;;;2.72;;
70320;SDS011;61127;55.826;37.046;2022-12-07T05:39:31;10.43;;;2.97;;
70320;SDS011;61127;55.826;37.046;2022-12-07T05:41:58;6.00;;;2.53;;
70320;SDS011;61127;55.826;37.046;2022-12-07T05:44:39;12.70;;;3.13;;
70320;SDS011;61127;55.826;37.046;2022-12-07T05:47:06;8.52;;;2.70;;
70320;SDS011;61127;55.826;37.046;2022-12-07T05:49:31;8.10;;;3.57;;
70320;SDS011;61127;55.826;37.046;2022-12-07T05:51:58;10.55;;;3.30;;
70320;SDS011;61127;55.826;37.046;2022-12-07T05:54:24;8.25;;;2.33;;
70320;SDS011;61127;55.826;37.046;2022-12-07T05:56:49;10.20;;;3.93;;
70320;SDS011;61127;55.826;37.046;2022-12-07T05:59:15;7.50;;;2.50;;
70320;SDS011;61127;55.826;37.046;2022-12-07T06:01:58;9.35;;;2.90;;
70320;SDS011;61127;55.826;37.046;2022-12-07T06:04:31;8.65;;;3.15;;
70320;SDS011;61127;55.826;37.046;2022-12-07T06:06:57;6.45;;;2.25;;
70320;SDS011;61127;55.826;37.046;2022-12-07T06:09:23;8.47;;;3.13;;
70320;SDS011;61127;55.826;37.046;2022-12-07T06:11:50;5.15;;;2.60;;
70320;SDS011;61127;55.826;37.046;2022-12-07T06:14:34;10.30;;;3.40;;
70320;SDS011;61127;55.826;37.046;2022-12-07T06:17:00;6.40;;;2.60;;
70320;SDS011;61127;55.826;37.046;2022-12-07T06:19:26;14.52;;;3.22;;
70320;SDS011;61127;55.826;37.046;2022-12-07T06:21:53;8.25;;;3.20;;
70320;SDS011;61127;55.826;37.046;2022-12-07T06:24:18;10.85;;;3.67;;
70320;SDS011;61127;55.826;37.046;2022-12-07T06:26:44;9.90;;;3.63;;
70320;SDS011;61127;55.826;37.046;2022-12-07T06:29:10;8.15;;;2.75;;
70320;SDS011;61127;55.826;37.046;2022-12-07T06:31:38;10.75;;;3.55;;
70320;SDS011;61127;55.826;37.046;2022-12-07T06:34:05;11.55;;;4.00;;
70320;SDS011;61127;55.826;37.046;2022-12-07T06:36:31;10.10;;;3.50;;
70320;SDS011;61127;55.826;37.046;2022-12-07T06:38:57;8.95;;;3.25;;
70320;SDS011;61127;55.826;37.046;2022-12-07T06:41:23;10.27;;;3.87;;
70320;SDS011;61127;55.826;37.046;2022-12-07T06:43:49;12.20;;;4.28;;
70320;SDS011;61127;55.826;37.046;2022-12-07T06:46:14;10.80;;;3.70;;
70320;SDS011;61127;55.826;37.046;2022-12-07T06:48:40;8.45;;;3.50;;
70320;SDS011;61127;55.826;37.046;2022-12-07T06:51:07;13.88;;;4.13;;
70320;SDS011;61127;55.826;37.046;2022-12-07T06:53:33;15.13;;;5.30;;
70320;SDS011;61127;55.826;37.046;2022-12-07T06:55:58;12.30;;;4.45;;
70320;SDS011;61127;55.826;37.046;2022-12-07T06:58:24;14.53;;;3.97;;
70320;SDS011;61127;55.826;37.046;2022-12-07T07:00:50;12.07;;;4.18;;
70320;SDS011;61127;55.826;37.046;2022-12-07T07:03:16;6.57;;;2.37;;
70320;SDS011;61127;55.826;37.046;2022-12-07T07:05:42;13.52;;;3.58;;
70320;SDS011;61127;55.826;37.046;2022-12-07T07:08:08;13.90;;;3.47;;
70320;SDS011;61127;55.826;37.046;2022-12-07T07:10:35;16.23;;;5.20;;
70320;SDS011;61127;55.826;37.046;2022-12-07T07:13:00;10.60;;;2.38;;
70320;SDS011;61127;55.826;37.046;2022-12-07T07:15:26;10.90;;;3.90;;
70320;SDS011;61127;55.826;37.046;2022-12-07T07:17:52;7.50;;;3.27;;
70320;SDS011;61127;55.826;37.046;2022-12-07T07:20:18;8.23;;;2.30;;
70320;SDS011;61127;55.826;37.046;2022-12-07T07:22:43;7.97;;;3.40;;
70320;SDS011;61127;55.826;37.046;2022-12-07T07:25:09;8.65;;;3.45;;
70320;SDS011;61127;55.826;37.046;2022-12-07T07:27:34;5.32;;;2.20;;
70320;SDS011;61127;55.826;37.046;2022-12-07T07:30:00;11.90;;;3.23;;
70320;SDS011;61127;55.826;37.046;2022-12-07T07:32:26;12.35;;;4.03;;
70320;SDS011;61127;55.826;37.046;2022-12-07T07:34:51;8.15;;;3.38;;
70320;SDS011;61127;55.826;37.046;2022-12-07T07:37:17;8.60;;;3.33;;
70320;SDS011;61127;55.826;37.046;2022-12-07T07:39:42;5.03;;;2.20;;
70320;SDS011;61127;55.826;37.046;2022-12-07T07:42:08;9.07;;;4.10;;
70320;SDS011;61127;55.826;37.046;2022-12-07T07:44:34;7.53;;;3.25;;
70320;SDS011;61127;55.826;37.046;2022-12-07T07:47:00;7.70;;;3.20;;
70320;SDS011;61127;55.826;37.046;2022-12-07T07:49:26;9.45;;;4.05;;
70320;SDS011;61127;55.826;37.046;2022-12-07T07:51:53;8.82;;;3.47;;
70320;SDS011;61127;55.826;37.046;2022-12-07T07:54:18;9.13;;;3.63;;
70320;SDS011;61127;55.826;37.046;2022-12-07T07:56:44;9.88;;;3.80;;
70320;SDS011;61127;55.826;37.046;2022-12-07T07:59:09;8.67;;;3.23;;
70320;SDS011;61127;55.826;37.046;2022-12-07T08:01:35;5.77;;;2.70;;
70320;SDS011;61127;55.826;37.046;2022-12-07T08:04:01;7.82;;;2.95;;
70320;SDS011;61127;55.826;37.046;2022-12-07T08:06:26;11.83;;;4.13;;
70320;SDS011;61127;55.826;37.046;2022-12-07T08:08:52;8.30;;;3.28;;
70320;SDS011;61127;55.826;37.046;2022-12-07T08:11:19;8.97;;;3.77;;
70320;SDS011;61127;55.826;37.046;2022-12-07T08:13:46;7.82;;;3.40;;
70320;SDS011;61127;55.826;37.046;2022-12-07T08:16:14;8.98;;;3.78;;
70320;SDS011;61127;55.826;37.046;2022-12-07T08:18:42;12.50;;;4.20;;
70320;SDS011;61127;55.826;37.046;2022-12-07T08:21:09;11.75;;;3.28;;
70320;SDS011;61127;55.826;37.046;2022-12-07T08:23:36;8.27;;;3.43;;
70320;SDS011;61127;55.826;37.046;2022-12-07T08:26:03;11.80;;;3.33;;
70320;SDS011;61127;55.826;37.046;2022-12-07T08:28:28;10.27;;;3.78;;
70320;SDS011;61127;55.826;37.046;2022-12-07T08:30:59;10.57;;;3.37;;
70320;SDS011;61127;55.826;37.046;2022-12-07T08:33:25;7.82;;;3.13;;
70320;SDS011;61127;55.826;37.046;2022-12-07T08:35:51;11.50;;;3.57;;
70320;SDS011;61127;55.826;37.046;2022-12-07T08:38:17;8.65;;;3.95;;
70320;SDS011;61127;55.826;37.046;2022-12-07T08:40:43;10.07;;;4.10;;
70320;SDS011;61127;55.826;37.046;2022-12-07T08:43:09;8.25;;;3.20;;
70320;SDS011;61127;55.826;37.046;2022-12-07T08:45:34;9.30;;;3.57;;
70320;SDS011;61127;55.826;37.046;2022-12-07T08:50:26;10.97;;;3.97;;
70320;SDS011;61127;55.826;37.046;2022-12-07T08:52:53;9.18;;;3.30;;
70320;SDS011;61127;55.826;37.046;2022-12-07T08:55:19;5.72;;;2.63;;
70320;SDS011;61127;55.826;37.046;2022-12-07T08:57:45;8.97;;;3.27;;
70320;SDS011;61127;55.826;37.046;2022-12-07T09:00:10;9.68;;;3.50;;
70320;SDS011;61127;55.826;37.046;2022-12-07T09:02:36;10.40;;;3.20;;
70320;SDS011;61127;55.826;37.046;2022-12-07T09:05:02;7.93;;;3.38;;
70320;SDS011;61127;55.826;37.046;2022-12-07T09:07:28;7.77;;;3.20;;
70320;SDS011;61127;55.826;37.046;2022-12-07T09:09:55;9.77;;;3.13;;
70320;SDS011;61127;55.826;37.046;2022-12-07T09:12:22;9.23;;;3.15;;
70320;SDS011;61127;55.826;37.046;2022-12-07T09:14:48;11.27;;;3.45;;
70320;SDS011;61127;55.826;37.046;2022-12-07T09:17:13;9.53;;;3.97;;
70320;SDS011;61127;55.826;37.046;2022-12-07T09:19:39;10.10;;;3.50;;
70320;SDS011;61127;55.826;37.046;2022-12-07T09:22:06;10.68;;;3.03;;
70320;SDS011;61127;55.826;37.046;2022-12-07T09:24:32;10.07;;;3.17;;
70320;SDS011;61127;55.826;37.046;2022-12-07T09:26:58;9.73;;;3.00;;
70320;SDS011;61127;55.826;37.046;2022-12-07T09:29:24;10.52;;;3.67;;
70320;SDS011;61127;55.826;37.046;2022-12-07T09:31:51;11.07;;;4.10;;
70320;SDS011;61127;55.826;37.046;2022-12-07T09:34:16;8.07;;;3.10;;
70320;SDS011;61127;55.826;37.046;2022-12-07T09:36:42;11.07;;;3.40;;
70320;SDS011;61127;55.826;37.046;2022-12-07T09:39:08;9.23;;;3.28;;
70320;SDS011;61127;55.826;37.046;2022-12-07T09:41:37;8.63;;;3.20;;
70320;SDS011;61127;55.826;37.046;2022-12-07T09:44:23;6.63;;;3.35;;
70320;SDS011;61127;55.826;37.046;2022-12-07T09:46:49;10.00;;;3.60;;
70320;SDS011;61127;55.826;37.046;2022-12-07T09:49:19;9.47;;;3.33;;
70320;SDS011;61127;55.826;37.046;2022-12-07T09:51:46;8.55;;;2.33;;
70320;SDS011;61127;55.826;37.046;2022-12-07T09:54:13;9.35;;;3.00;;
70320;SDS011;61127;55.826;37.046;2022-12-07T09:56:39;9.07;;;3.05;;
70320;SDS011;61127;55.826;37.046;2022-12-07T09:59:04;8.23;;;3.03;;
70320;SDS011;61127;55.826;37.046;2022-12-07T10:01:31;7.60;;;3.58;;
70320;SDS011;61127;55.826;37.046;2022-12-07T10:04:09;10.40;;;3.07;;
70320;SDS011;61127;55.826;37.046;2022-12-07T10:09:52;4.45;;;2.20;;
70320;SDS011;61127;55.826;37.046;2022-12-07T10:12:18;7.47;;;3.17;;
70320;SDS011;61127;55.826;37.046;2022-12-07T10:15:00;8.63;;;3.10;;
70320;SDS011;61127;55.826;37.046;2022-12-07T10:17:40;7.10;;;2.88;;
70320;SDS011;61127;55.826;37.046;2022-12-07T10:20:13;7.50;;;2.72;;
70320;SDS011;61127;55.826;37.046;2022-12-07T10:22:48;7.50;;;2.73;;
70320;SDS011;61127;55.826;37.046;2022-12-07T10:25:21;8.32;;;2.65;;
70320;SDS011;61127;55.826;37.046;2022-12-07T10:28:00;6.90;;;2.60;;
70320;SDS011;61127;55.826;37.046;2022-12-07T10:30:29;12.88;;;3.35;;
70320;SDS011;61127;55.826;37.046;2022-12-07T10:32:55;9.63;;;3.30;;
70320;SDS011;61127;55.826;37.046;2022-12-07T10:35:27;10.63;;;3.87;;
70320;SDS011;61127;55.826;37.046;2022-12-07T10:37:54;12.32;;;4.20;;
70320;SDS011;61127;55.826;37.046;2022-12-07T10:40:28;5.88;;;2.53;;
70320;SDS011;61127;55.826;37.046;2022-12-07T10:43:05;11.93;;;3.20;;
70320;SDS011;61127;55.826;37.046;2022-12-07T10:45:32;7.97;;;3.28;;
70320;SDS011;61127;55.826;37.046;2022-12-07T10:52:58;8.67;;;3.03;;
70320;SDS011;61127;55.826;37.046;2022-12-07T11:11:09;8.35;;;2.63;;
70320;SDS011;61127;55.826;37.046;2022-12-07T11:16:32;8.05;;;2.60;;
70320;SDS011;61127;55.826;37.046;2022-12-07T11:36:45;5.10;;;2.00;;
70320;SDS011;61127;55.826;37.046;2022-12-07T11:41:43;14.68;;;3.75;;
70320;SDS011;61127;55.826;37.046;2022-12-07T11:49:45;6.30;;;2.47;;
70320;SDS011;61127;55.826;37.046;2022-12-07T11:52:18;12.90;;;4.40;;
70320;SDS011;61127;55.826;37.046;2022-12-07T11:54:51;14.43;;;3.67;;
70320;SDS011;61127;55.826;37.046;2022-12-07T11:57:26;9.30;;;3.30;;
70320;SDS011;61127;55.826;37.046;2022-12-07T11:59:56;9.93;;;3.20;;
70320;SDS011;61127;55.826;37.046;2022-12-07T12:02:32;8.43;;;2.80;;
70320;SDS011;61127;55.826;37.046;2022-12-07T12:05:17;13.27;;;3.85;;
70320;SDS011;61127;55.826;37.046;2022-12-07T12:07:44;16.42;;;4.57;;
70320;SDS011;61127;55.826;37.046;2022-12-07T12:10:22;12.48;;;4.72;;
70320;SDS011;61127;55.826;37.046;2022-12-07T12:21:06;8.60;;;3.43;;
70320;SDS011;61127;55.826;37.046;2022-12-07T12:23:35;14.75;;;3.75;;
70320;SDS011;61127;55.826;37.046;2022-12-07T12:26:08;10.68;;;3.50;;
70320;SDS011;61127;55.826;37.046;2022-12-07T12:28:41;14.20;;;4.13;;
70320;SDS011;61127;55.826;37.046;2022-12-07T12:31:28;13.97;;;5.07;;
70320;SDS011;61127;55.826;37.046;2022-12-07T12:34:00;9.98;;;2.95;;
70320;SDS011;61127;55.826;37.046;2022-12-07T12:46:54;13.30;;;5.05;;
70320;SDS011;61127;55.826;37.046;2022-12-07T12:59:29;11.35;;;4.57;;
70320;SDS011;61127;55.826;37.046;2022-12-07T13:04:55;14.53;;;4.90;;
70320;SDS011;61127;55.826;37.046;2022-12-07T13:10:20;16.73;;;5.35;;
70320;SDS011;61127;55.826;37.046;2022-12-07T13:18:00;14.20;;;4.57;;
70320;SDS011;61127;55.826;37.046;2022-12-07T13:20:45;18.98;;;5.85;;
70320;SDS011;61127;55.826;37.046;2022-12-07T13:23:12;15.63;;;5.50;;
70320;SDS011;61127;55.826;37.046;2022-12-07T13:29:36;14.57;;;5.28;;
70320;SDS011;61127;55.826;37.046;2022-12-07T13:32:01;12.60;;;4.90;;
70320;SDS011;61127;55.826;37.046;2022-12-07T13:36:57;15.48;;;5.35;;
70320;SDS011;61127;55.826;37.046;2022-12-07T13:39:24;19.17;;;6.00;;
70320;SDS011;61127;55.826;37.046;2022-12-07T13:41:53;17.75;;;4.60;;
70320;SDS011;61127;55.826;37.046;2022-12-07T13:44:20;21.38;;;8.38;;
70320;SDS011;61127;55.826;37.046;2022-12-07T13:51:48;17.20;;;6.20;;
70320;SDS011;61127;55.826;37.046;2022-12-07T13:54:14;19.73;;;5.90;;
70320;SDS011;61127;55.826;37.046;2022-12-07T13:56:41;19.40;;;6.60;;
70320;SDS011;61127;55.826;37.046;2022-12-07T13:59:40;21.77;;;6.67;;
70320;SDS011;61127;55.826;37.046;2022-12-07T14:01:59;16.42;;;7.13;;
70320;SDS011;61127;55.826;37.046;2022-12-07T14:04:30;18.02;;;6.80;;
70320;SDS011;61127;55.826;37.046;2022-12-07T14:06:57;13.47;;;5.20;;
70320;SDS011;61127;55.826;37.046;2022-12-07T14:09:23;16.27;;;6.35;;
70320;SDS011;61127;55.826;37.046;2022-12-07T14:11:50;15.38;;;6.47;;
70320;SDS011;61127;55.826;37.046;2022-12-07T14:14:23;20.42;;;7.90;;
70320;SDS011;61127;55.826;37.046;2022-12-07T14:17:02;15.07;;;4.40;;
70320;SDS011;61127;55.826;37.046;2022-12-07T14:19:48;20.80;;;6.60;;
70320;SDS011;61127;55.826;37.046;2022-12-07T14:22:57;16.05;;;6.72;;
70320;SDS011;61127;55.826;37.046;2022-12-07T14:27:32;15.90;;;6.03;;
70320;SDS011;61127;55.826;37.046;2022-12-07T14:30:02;17.38;;;6.65;;
70320;SDS011;61127;55.826;37.046;2022-12-07T14:32:29;19.65;;;7.13;;
70320;SDS011;61127;55.826;37.046;2022-12-07T14:37:23;15.47;;;6.50;;
70320;SDS011;61127;55.826;37.046;2022-12-07T14:39:49;20.70;;;7.80;;
70320;SDS011;61127;55.826;37.046;2022-12-07T14:42:14;25.10;;;7.50;;
70320;SDS011;61127;55.826;37.046;2022-12-07T14:44:40;14.20;;;5.47;;
70320;SDS011;61127;55.826;37.046;2022-12-07T14:47:08;27.25;;;9.25;;
70320;SDS011;61127;55.826;37.046;2022-12-07T14:49:35;25.48;;;7.80;;
70320;SDS011;61127;55.826;37.046;2022-12-07T14:52:01;23.00;;;8.00;;
70320;SDS011;61127;55.826;37.046;2022-12-07T14:54:27;15.32;;;5.32;;
70320;SDS011;61127;55.826;37.046;2022-12-07T14:56:54;16.83;;;5.80;;
70320;SDS011;61127;55.826;37.046;2022-12-07T14:59:20;17.48;;;6.57;;
70320;SDS011;61127;55.826;37.046;2022-12-07T15:01:46;22.75;;;6.70;;
70320;SDS011;61127;55.826;37.046;2022-12-07T15:04:12;23.23;;;8.77;;
70320;SDS011;61127;55.826;37.046;2022-12-07T15:09:10;13.90;;;5.00;;
70320;SDS011;61127;55.826;37.046;2022-12-07T15:11:36;22.20;;;6.82;;
70320;SDS011;61127;55.826;37.046;2022-12-07T15:14:02;8.43;;;3.90;;
70320;SDS011;61127;55.826;37.046;2022-12-07T15:16:38;19.20;;;8.38;;
70320;SDS011;61127;55.826;37.046;2022-12-07T15:19:14;16.48;;;6.93;;
70320;SDS011;61127;55.826;37.046;2022-12-07T15:21:41;19.02;;;6.07;;
70320;SDS011;61127;55.826;37.046;2022-12-07T15:24:07;19.70;;;6.25;;
70320;SDS011;61127;55.826;37.046;2022-12-07T15:26:34;12.77;;;4.57;;
70320;SDS011;61127;55.826;37.046;2022-12-07T15:28:59;13.18;;;6.60;;
70320;SDS011;61127;55.826;37.046;2022-12-07T15:31:25;12.87;;;5.23;;
70320;SDS011;61127;55.826;37.046;2022-12-07T15:33:50;16.40;;;6.75;;
70320;SDS011;61127;55.826;37.046;2022-12-07T15:36:21;14.37;;;6.30;;
70320;SDS011;61127;55.826;37.046;2022-12-07T15:38:47;14.95;;;6.43;;
70320;SDS011;61127;55.826;37.046;2022-12-07T15:41:13;14.40;;;6.22;;
70320;SDS011;61127;55.826;37.046;2022-12-07T15:43:39;15.47;;;5.10;;
70320;SDS011;61127;55.826;37.046;2022-12-07T15:46:31;11.43;;;3.58;;
70320;SDS011;61127;55.826;37.046;2022-12-07T15:48:57;12.55;;;4.13;;
70320;SDS011;61127;55.826;37.046;2022-12-07T15:51:23;15.27;;;5.70;;
70320;SDS011;61127;55.826;37.046;2022-12-07T15:53:49;13.80;;;5.18;;
70320;SDS011;61127;55.826;37.046;2022-12-07T15:56:25;14.23;;;5.57;;
70320;SDS011;61127;55.826;37.046;2022-12-07T15:58:50;12.65;;;4.95;;
70320;SDS011;61127;55.826;37.046;2022-12-07T16:01:17;19.15;;;6.13;;
70320;SDS011;61127;55.826;37.046;2022-12-07T16:03:43;19.03;;;6.00;;
70320;SDS011;61127;55.826;37.046;2022-12-07T16:06:10;12.25;;;3.97;;
70320;SDS011;61127;55.826;37.046;2022-12-07T16:08:36;12.68;;;4.03;;
70320;SDS011;61127;55.826;37.046;2022-12-07T16:11:06;11.80;;;4.47;;
70320;SDS011;61127;55.826;37.046;2022-12-07T16:13:32;18.25;;;5.60;;
70320;SDS011;61127;55.826;37.046;2022-12-07T16:16:04;12.60;;;4.07;;
70320;SDS011;61127;55.826;37.046;2022-12-07T16:18:29;12.77;;;5.22;;
70320;SDS011;61127;55.826;37.046;2022-12-07T16:20:55;12.63;;;4.35;;
70320;SDS011;61127;55.826;37.046;2022-12-07T16:23:20;14.10;;;5.27;;
70320;SDS011;61127;55.826;37.046;2022-12-07T16:25:46;13.93;;;5.17;;
70320;SDS011;61127;55.826;37.046;2022-12-07T16:28:12;18.20;;;6.90;;
70320;SDS011;61127;55.826;37.046;2022-12-07T16:30:37;16.80;;;5.00;;
70320;SDS011;61127;55.826;37.046;2022-12-07T16:33:03;10.07;;;3.80;;
70320;SDS011;61127;55.826;37.046;2022-12-07T16:35:28;15.40;;;6.03;;
70320;SDS011;61127;55.826;37.046;2022-12-07T16:37:54;16.57;;;5.23;;
70320;SDS011;61127;55.826;37.046;2022-12-07T16:40:20;14.40;;;5.77;;
70320;SDS011;61127;55.826;37.046;2022-12-07T16:42:45;11.70;;;3.63;;
70320;SDS011;61127;55.826;37.046;2022-12-07T16:45:11;17.50;;;5.50;;
70320;SDS011;61127;55.826;37.046;2022-12-07T16:47:37;12.73;;;4.60;;
70320;SDS011;61127;55.826;37.046;2022-12-07T16:50:03;13.10;;;4.72;;
70320;SDS011;61127;55.826;37.046;2022-12-07T16:52:29;11.00;;;4.40;;
70320;SDS011;61127;55.826;37.046;2022-12-07T16:54:54;15.83;;;5.73;;
70320;SDS011;61127;55.826;37.046;2022-12-07T16:57:20;14.23;;;4.95;;